sensor_id;sensor_type;location;lat;lon;timestamp;P1;durP1;ratioP1;P2;durP2;ratioP2
72127;SDS011;60000;51.030;7.024;2023-04-25T00:00:56;9.73;;;2.60;;
72127;SDS011;60000;51.030;7.024;2023-04-25T00:03:22;7.43;;;2.70;;
72127;SDS011;60000;51.030;7.024;2023-04-25T00:05:50;8.40;;;2.85;;
72127;SDS011;60000;51.030;7.024;2023-04-25T00:08:16;7.53;;;2.40;;
72127;SDS011;60000;51.030;7.024;2023-04-25T00:10:42;6.07;;;1.97;;
72127;SDS011;60000;51.030;7.024;2023-04-25T00:13:07;6.47;;;2.08;;
72127;SDS011;60000;51.030;7.024;2023-04-25T00:15:33;5.33;;;1.87;;
72127;SDS011;60000;51.030;7.024;2023-04-25T00:17:58;7.40;;;2.20;;
72127;SDS011;60000;51.030;7.024;2023-04-25T00:20:23;5.80;;;2.07;;
72127;SDS011;60000;51.030;7.024;2023-04-25T00:22:49;4.82;;;1.60;;
72127;SDS011;60000;51.030;7.024;2023-04-25T00:25:15;4.47;;;1.90;;
72127;SDS011;60000;51.030;7.024;2023-04-25T00:27:41;5.73;;;1.80;;
72127;SDS011;60000;51.030;7.024;2023-04-25T00:30:07;5.73;;;2.07;;
72127;SDS011;60000;51.030;7.024;2023-04-25T00:32:32;6.32;;;1.98;;
72127;SDS011;60000;51.030;7.024;2023-04-25T00:34:58;5.65;;;1.77;;
72127;SDS011;60000;51.030;7.024;2023-04-25T00:37:23;8.82;;;2.28;;
72127;SDS011;60000;51.030;7.024;2023-04-25T00:39:49;6.67;;;2.23;;
72127;SDS011;60000;51.030;7.024;2023-04-25T00:42:15;9.75;;;3.08;;
72127;SDS011;60000;51.030;7.024;2023-04-25T00:44:41;7.47;;;2.90;;
72127;SDS011;60000;51.030;7.024;2023-04-25T00:47:08;8.13;;;2.72;;
72127;SDS011;60000;51.030;7.024;2023-04-25T00:49:33;11.13;;;2.73;;
72127;SDS011;60000;51.030;7.024;2023-04-25T00:51:59;9.57;;;2.80;;
72127;SDS011;60000;51.030;7.024;2023-04-25T00:54:24;8.03;;;2.97;;
72127;SDS011;60000;51.030;7.024;2023-04-25T00:56:50;9.43;;;2.77;;
72127;SDS011;60000;51.030;7.024;2023-04-25T00:59:15;9.35;;;2.50;;
72127;SDS011;60000;51.030;7.024;2023-04-25T01:01:41;6.97;;;2.30;;
72127;SDS011;60000;51.030;7.024;2023-04-25T01:04:07;8.25;;;2.88;;
72127;SDS011;60000;51.030;7.024;2023-04-25T01:06:33;6.70;;;2.20;;
72127;SDS011;60000;51.030;7.024;2023-04-25T01:08:58;8.47;;;2.67;;
72127;SDS011;60000;51.030;7.024;2023-04-25T01:11:24;7.47;;;2.65;;
72127;SDS011;60000;51.030;7.024;2023-04-25T01:13:50;6.00;;;2.57;;
72127;SDS011;60000;51.030;7.024;2023-04-25T01:16:15;11.25;;;3.38;;
72127;SDS011;60000;51.030;7.024;2023-04-25T01:18:41;9.37;;;3.47;;
72127;SDS011;60000;51.030;7.024;2023-04-25T01:21:08;11.98;;;3.58;;
72127;SDS011;60000;51.030;7.024;2023-04-25T01:23:38;8.43;;;2.90;;
72127;SDS011;60000;51.030;7.024;2023-04-25T01:26:05;8.98;;;2.95;;
72127;SDS011;60000;51.030;7.024;2023-04-25T01:28:31;10.63;;;3.37;;
72127;SDS011;60000;51.030;7.024;2023-04-25T01:30:58;10.00;;;3.17;;
72127;SDS011;60000;51.030;7.024;2023-04-25T01:33:24;11.65;;;2.95;;
72127;SDS011;60000;51.030;7.024;2023-04-25T01:35:49;10.33;;;3.70;;
72127;SDS011;60000;51.030;7.024;2023-04-25T01:38:15;8.40;;;3.17;;
72127;SDS011;60000;51.030;7.024;2023-04-25T01:40:40;8.15;;;2.90;;
72127;SDS011;60000;51.030;7.024;2023-04-25T01:43:06;10.70;;;3.13;;
72127;SDS011;60000;51.030;7.024;2023-04-25T01:45:35;13.10;;;3.85;;
72127;SDS011;60000;51.030;7.024;2023-04-25T01:48:04;12.00;;;3.50;;
72127;SDS011;60000;51.030;7.024;2023-04-25T01:50:30;11.15;;;3.22;;
72127;SDS011;60000;51.030;7.024;2023-04-25T01:52:55;9.10;;;2.60;;
72127;SDS011;60000;51.030;7.024;2023-04-25T01:55:21;13.02;;;3.15;;
72127;SDS011;60000;51.030;7.024;2023-04-25T01:57:46;10.17;;;2.87;;
72127;SDS011;60000;51.030;7.024;2023-04-25T02:00:12;9.40;;;2.73;;
72127;SDS011;60000;51.030;7.024;2023-04-25T02:02:38;12.25;;;3.58;;
72127;SDS011;60000;51.030;7.024;2023-04-25T02:05:03;7.97;;;2.40;;
72127;SDS011;60000;51.030;7.024;2023-04-25T02:07:29;9.83;;;2.77;;
72127;SDS011;60000;51.030;7.024;2023-04-25T02:09:54;10.63;;;2.85;;
72127;SDS011;60000;51.030;7.024;2023-04-25T02:12:19;13.67;;;2.83;;
72127;SDS011;60000;51.030;7.024;2023-04-25T02:14:45;10.17;;;2.67;;
72127;SDS011;60000;51.030;7.024;2023-04-25T02:17:10;9.77;;;2.67;;
72127;SDS011;60000;51.030;7.024;2023-04-25T02:19:37;12.18;;;2.85;;
72127;SDS011;60000;51.030;7.024;2023-04-25T02:22:03;8.87;;;2.40;;
72127;SDS011;60000;51.030;7.024;2023-04-25T02:24:28;8.83;;;2.37;;
72127;SDS011;60000;51.030;7.024;2023-04-25T02:26:54;10.05;;;3.05;;
72127;SDS011;60000;51.030;7.024;2023-04-25T02:29:20;12.57;;;3.70;;
72127;SDS011;60000;51.030;7.024;2023-04-25T02:31:46;7.38;;;2.75;;
72127;SDS011;60000;51.030;7.024;2023-04-25T02:34:11;7.80;;;2.50;;
72127;SDS011;60000;51.030;7.024;2023-04-25T02:36:36;8.23;;;2.40;;
72127;SDS011;60000;51.030;7.024;2023-04-25T02:39:02;7.63;;;2.90;;
72127;SDS011;60000;51.030;7.024;2023-04-25T02:41:28;10.20;;;2.78;;
72127;SDS011;60000;51.030;7.024;2023-04-25T02:43:53;9.85;;;2.65;;
72127;SDS011;60000;51.030;7.024;2023-04-25T02:46:20;8.17;;;2.10;;
72127;SDS011;60000;51.030;7.024;2023-04-25T02:48:45;11.57;;;2.72;;
72127;SDS011;60000;51.030;7.024;2023-04-25T02:51:10;8.43;;;2.97;;
72127;SDS011;60000;51.030;7.024;2023-04-25T02:53:36;9.30;;;2.77;;
72127;SDS011;60000;51.030;7.024;2023-04-25T02:56:01;11.90;;;2.90;;
72127;SDS011;60000;51.030;7.024;2023-04-25T02:58:27;8.93;;;2.37;;
72127;SDS011;60000;51.030;7.024;2023-04-25T03:00:52;8.30;;;2.50;;
72127;SDS011;60000;51.030;7.024;2023-04-25T03:03:17;10.73;;;3.20;;
72127;SDS011;60000;51.030;7.024;2023-04-25T03:05:43;9.10;;;2.90;;
72127;SDS011;60000;51.030;7.024;2023-04-25T03:08:09;10.18;;;2.53;;
72127;SDS011;60000;51.030;7.024;2023-04-25T03:10:34;10.00;;;2.50;;
72127;SDS011;60000;51.030;7.024;2023-04-25T03:13:00;8.63;;;2.90;;
72127;SDS011;60000;51.030;7.024;2023-04-25T03:15:25;8.33;;;2.50;;
72127;SDS011;60000;51.030;7.024;2023-04-25T03:17:51;8.57;;;2.20;;
72127;SDS011;60000;51.030;7.024;2023-04-25T03:20:16;7.53;;;2.43;;
72127;SDS011;60000;51.030;7.024;2023-04-25T03:22:42;8.67;;;2.20;;
72127;SDS011;60000;51.030;7.024;2023-04-25T03:25:07;9.20;;;2.60;;
72127;SDS011;60000;51.030;7.024;2023-04-25T03:27:33;8.82;;;2.60;;
72127;SDS011;60000;51.030;7.024;2023-04-25T03:29:58;8.30;;;2.33;;
72127;SDS011;60000;51.030;7.024;2023-04-25T03:32:24;10.73;;;2.60;;
72127;SDS011;60000;51.030;7.024;2023-04-25T03:34:49;7.60;;;2.40;;
72127;SDS011;60000;51.030;7.024;2023-04-25T03:37:15;7.22;;;2.13;;
72127;SDS011;60000;51.030;7.024;2023-04-25T03:39:40;5.87;;;2.40;;
72127;SDS011;60000;51.030;7.024;2023-04-25T03:42:05;11.23;;;2.90;;
72127;SDS011;60000;51.030;7.024;2023-04-25T03:44:30;8.60;;;2.40;;
72127;SDS011;60000;51.030;7.024;2023-04-25T03:46:56;6.43;;;2.50;;
72127;SDS011;60000;51.030;7.024;2023-04-25T03:49:21;6.83;;;2.30;;
72127;SDS011;60000;51.030;7.024;2023-04-25T03:51:46;5.80;;;2.13;;
72127;SDS011;60000;51.030;7.024;2023-04-25T03:54:12;7.33;;;2.70;;
72127;SDS011;60000;51.030;7.024;2023-04-25T03:56:37;7.83;;;2.77;;
72127;SDS011;60000;51.030;7.024;2023-04-25T03:59:02;7.63;;;2.37;;
72127;SDS011;60000;51.030;7.024;2023-04-25T04:01:27;8.65;;;2.55;;
72127;SDS011;60000;51.030;7.024;2023-04-25T04:03:53;7.13;;;2.70;;
72127;SDS011;60000;51.030;7.024;2023-04-25T04:06:18;7.37;;;2.50;;
72127;SDS011;60000;51.030;7.024;2023-04-25T04:08:45;11.57;;;2.45;;
72127;SDS011;60000;51.030;7.024;2023-04-25T04:11:11;7.33;;;2.30;;
72127;SDS011;60000;51.030;7.024;2023-04-25T04:13:36;8.98;;;2.72;;
72127;SDS011;60000;51.030;7.024;2023-04-25T04:16:01;10.37;;;2.60;;
72127;SDS011;60000;51.030;7.024;2023-04-25T04:18:29;9.60;;;2.70;;
72127;SDS011;60000;51.030;7.024;2023-04-25T04:20:54;8.00;;;2.55;;
72127;SDS011;60000;51.030;7.024;2023-04-25T04:23:19;9.73;;;2.70;;
72127;SDS011;60000;51.030;7.024;2023-04-25T04:25:45;8.47;;;2.70;;
72127;SDS011;60000;51.030;7.024;2023-04-25T04:28:11;9.45;;;2.67;;
72127;SDS011;60000;51.030;7.024;2023-04-25T04:30:38;9.82;;;3.10;;
72127;SDS011;60000;51.030;7.024;2023-04-25T04:33:04;9.70;;;3.15;;
72127;SDS011;60000;51.030;7.024;2023-04-25T04:35:29;7.43;;;2.77;;
72127;SDS011;60000;51.030;7.024;2023-04-25T04:37:55;8.17;;;3.10;;
72127;SDS011;60000;51.030;7.024;2023-04-25T04:40:21;9.13;;;2.78;;
72127;SDS011;60000;51.030;7.024;2023-04-25T04:42:46;9.83;;;3.27;;
72127;SDS011;60000;51.030;7.024;2023-04-25T04:45:12;7.47;;;2.90;;
72127;SDS011;60000;51.030;7.024;2023-04-25T04:47:38;8.13;;;3.10;;
72127;SDS011;60000;51.030;7.024;2023-04-25T04:50:04;10.85;;;3.35;;
72127;SDS011;60000;51.030;7.024;2023-04-25T04:52:34;16.58;;;4.97;;
72127;SDS011;60000;51.030;7.024;2023-04-25T04:55:00;10.75;;;4.30;;
72127;SDS011;60000;51.030;7.024;2023-04-25T04:57:25;10.20;;;3.33;;
72127;SDS011;60000;51.030;7.024;2023-04-25T04:59:51;10.23;;;3.50;;
72127;SDS011;60000;51.030;7.024;2023-04-25T05:02:17;8.70;;;3.30;;
72127;SDS011;60000;51.030;7.024;2023-04-25T05:04:42;8.97;;;3.20;;
72127;SDS011;60000;51.030;7.024;2023-04-25T05:07:07;8.50;;;3.57;;
72127;SDS011;60000;51.030;7.024;2023-04-25T05:09:33;12.43;;;4.17;;
72127;SDS011;60000;51.030;7.024;2023-04-25T05:11:58;12.00;;;4.27;;
72127;SDS011;60000;51.030;7.024;2023-04-25T05:14:23;9.40;;;3.40;;
72127;SDS011;60000;51.030;7.024;2023-04-25T05:16:48;15.07;;;3.53;;
72127;SDS011;60000;51.030;7.024;2023-04-25T05:19:14;11.53;;;3.27;;
72127;SDS011;60000;51.030;7.024;2023-04-25T05:21:39;12.57;;;2.90;;
72127;SDS011;60000;51.030;7.024;2023-04-25T05:24:05;10.90;;;3.40;;
72127;SDS011;60000;51.030;7.024;2023-04-25T05:26:30;12.57;;;2.97;;
72127;SDS011;60000;51.030;7.024;2023-04-25T05:28:59;10.47;;;3.17;;
72127;SDS011;60000;51.030;7.024;2023-04-25T05:31:24;10.63;;;3.15;;
72127;SDS011;60000;51.030;7.024;2023-04-25T05:33:50;11.35;;;3.33;;
72127;SDS011;60000;51.030;7.024;2023-04-25T05:36:15;12.60;;;3.20;;
72127;SDS011;60000;51.030;7.024;2023-04-25T05:38:41;12.50;;;3.30;;
72127;SDS011;60000;51.030;7.024;2023-04-25T05:41:06;9.85;;;3.33;;
72127;SDS011;60000;51.030;7.024;2023-04-25T05:43:32;16.27;;;3.60;;
72127;SDS011;60000;51.030;7.024;2023-04-25T05:45:57;9.77;;;3.20;;
72127;SDS011;60000;51.030;7.024;2023-04-25T05:48:23;10.70;;;2.70;;
72127;SDS011;60000;51.030;7.024;2023-04-25T05:50:48;10.43;;;3.17;;
72127;SDS011;60000;51.030;7.024;2023-04-25T05:53:13;13.63;;;3.13;;
72127;SDS011;60000;51.030;7.024;2023-04-25T05:55:39;11.77;;;3.50;;
72127;SDS011;60000;51.030;7.024;2023-04-25T05:58:04;12.00;;;3.77;;
72127;SDS011;60000;51.030;7.024;2023-04-25T06:00:30;9.97;;;2.90;;
72127;SDS011;60000;51.030;7.024;2023-04-25T06:02:55;12.32;;;3.17;;
72127;SDS011;60000;51.030;7.024;2023-04-25T06:05:21;8.32;;;2.97;;
72127;SDS011;60000;51.030;7.024;2023-04-25T06:07:46;12.40;;;3.20;;
72127;SDS011;60000;51.030;7.024;2023-04-25T06:10:11;13.00;;;3.00;;
72127;SDS011;60000;51.030;7.024;2023-04-25T06:12:37;9.90;;;2.90;;
72127;SDS011;60000;51.030;7.024;2023-04-25T06:15:03;9.65;;;2.83;;
72127;SDS011;60000;51.030;7.024;2023-04-25T06:17:29;16.45;;;3.20;;
72127;SDS011;60000;51.030;7.024;2023-04-25T06:19:55;13.23;;;2.80;;
72127;SDS011;60000;51.030;7.024;2023-04-25T06:22:20;10.30;;;3.53;;
72127;SDS011;60000;51.030;7.024;2023-04-25T06:24:46;10.70;;;2.83;;
72127;SDS011;60000;51.030;7.024;2023-04-25T06:27:11;11.40;;;3.30;;
72127;SDS011;60000;51.030;7.024;2023-04-25T06:29:36;10.50;;;2.80;;
72127;SDS011;60000;51.030;7.024;2023-04-25T06:32:02;13.73;;;3.20;;
72127;SDS011;60000;51.030;7.024;2023-04-25T06:34:27;9.97;;;2.93;;
72127;SDS011;60000;51.030;7.024;2023-04-25T06:36:52;10.10;;;2.73;;
72127;SDS011;60000;51.030;7.024;2023-04-25T06:39:18;13.90;;;2.90;;
72127;SDS011;60000;51.030;7.024;2023-04-25T06:41:45;10.93;;;2.80;;
72127;SDS011;60000;51.030;7.024;2023-04-25T06:44:10;11.50;;;2.60;;
72127;SDS011;60000;51.030;7.024;2023-04-25T06:46:35;9.37;;;2.60;;
72127;SDS011;60000;51.030;7.024;2023-04-25T06:49:02;12.93;;;2.55;;
72127;SDS011;60000;51.030;7.024;2023-04-25T06:51:27;12.80;;;2.27;;
72127;SDS011;60000;51.030;7.024;2023-04-25T06:53:54;15.30;;;2.80;;
72127;SDS011;60000;51.030;7.024;2023-04-25T06:56:19;11.77;;;2.70;;
72127;SDS011;60000;51.030;7.024;2023-04-25T06:58:46;12.07;;;2.95;;
72127;SDS011;60000;51.030;7.024;2023-04-25T07:01:11;14.23;;;3.07;;
72127;SDS011;60000;51.030;7.024;2023-04-25T07:03:37;11.20;;;2.73;;
72127;SDS011;60000;51.030;7.024;2023-04-25T07:06:03;16.15;;;2.80;;
72127;SDS011;60000;51.030;7.024;2023-04-25T07:08:28;13.48;;;2.85;;
72127;SDS011;60000;51.030;7.024;2023-04-25T07:10:54;10.20;;;2.33;;
72127;SDS011;60000;51.030;7.024;2023-04-25T07:13:19;11.33;;;2.60;;
72127;SDS011;60000;51.030;7.024;2023-04-25T07:15:45;16.85;;;3.22;;
72127;SDS011;60000;51.030;7.024;2023-04-25T07:18:12;8.37;;;2.20;;
72127;SDS011;60000;51.030;7.024;2023-04-25T07:20:37;13.57;;;3.28;;
72127;SDS011;60000;51.030;7.024;2023-04-25T07:23:03;12.17;;;2.80;;
72127;SDS011;60000;51.030;7.024;2023-04-25T07:25:28;10.57;;;2.97;;
72127;SDS011;60000;51.030;7.024;2023-04-25T07:27:53;10.87;;;3.23;;
72127;SDS011;60000;51.030;7.024;2023-04-25T07:30:19;10.43;;;2.80;;
72127;SDS011;60000;51.030;7.024;2023-04-25T07:32:44;13.53;;;3.20;;
72127;SDS011;60000;51.030;7.024;2023-04-25T07:35:10;12.95;;;3.00;;
72127;SDS011;60000;51.030;7.024;2023-04-25T07:37:35;7.83;;;2.80;;
72127;SDS011;60000;51.030;7.024;2023-04-25T07:40:02;9.93;;;2.57;;
72127;SDS011;60000;51.030;7.024;2023-04-25T07:42:28;10.15;;;2.78;;
72127;SDS011;60000;51.030;7.024;2023-04-25T07:44:54;7.27;;;2.33;;
72127;SDS011;60000;51.030;7.024;2023-04-25T07:47:19;10.55;;;2.63;;
72127;SDS011;60000;51.030;7.024;2023-04-25T07:49:45;12.55;;;3.67;;
72127;SDS011;60000;51.030;7.024;2023-04-25T07:52:10;12.43;;;3.77;;
72127;SDS011;60000;51.030;7.024;2023-04-25T07:54:36;9.93;;;2.70;;
72127;SDS011;60000;51.030;7.024;2023-04-25T07:57:01;13.07;;;3.67;;
72127;SDS011;60000;51.030;7.024;2023-04-25T07:59:27;11.32;;;3.00;;
72127;SDS011;60000;51.030;7.024;2023-04-25T08:01:52;9.10;;;3.17;;
72127;SDS011;60000;51.030;7.024;2023-04-25T08:04:18;9.57;;;2.37;;
72127;SDS011;60000;51.030;7.024;2023-04-25T08:06:43;8.20;;;2.60;;
72127;SDS011;60000;51.030;7.024;2023-04-25T08:09:09;10.27;;;2.70;;
72127;SDS011;60000;51.030;7.024;2023-04-25T08:11:34;12.00;;;2.57;;
72127;SDS011;60000;51.030;7.024;2023-04-25T08:14:00;6.82;;;2.30;;
72127;SDS011;60000;51.030;7.024;2023-04-25T08:16:26;7.88;;;2.90;;
72127;SDS011;60000;51.030;7.024;2023-04-25T08:18:52;9.70;;;2.40;;
72127;SDS011;60000;51.030;7.024;2023-04-25T08:21:17;10.60;;;2.60;;
72127;SDS011;60000;51.030;7.024;2023-04-25T08:23:42;10.23;;;3.03;;
72127;SDS011;60000;51.030;7.024;2023-04-25T08:26:07;10.93;;;3.20;;
72127;SDS011;60000;51.030;7.024;2023-04-25T08:28:33;11.40;;;3.13;;
72127;SDS011;60000;51.030;7.024;2023-04-25T08:30:58;10.67;;;2.80;;
72127;SDS011;60000;51.030;7.024;2023-04-25T08:33:24;10.23;;;2.50;;
72127;SDS011;60000;51.030;7.024;2023-04-25T08:35:50;8.00;;;2.40;;
72127;SDS011;60000;51.030;7.024;2023-04-25T08:38:15;8.88;;;2.28;;
72127;SDS011;60000;51.030;7.024;2023-04-25T08:40:41;10.83;;;2.67;;
72127;SDS011;60000;51.030;7.024;2023-04-25T08:43:09;8.27;;;2.30;;
72127;SDS011;60000;51.030;7.024;2023-04-25T08:45:41;11.13;;;2.97;;
72127;SDS011;60000;51.030;7.024;2023-04-25T08:48:07;9.63;;;3.30;;
72127;SDS011;60000;51.030;7.024;2023-04-25T08:50:40;14.52;;;3.00;;
72127;SDS011;60000;51.030;7.024;2023-04-25T08:53:16;11.65;;;3.05;;
72127;SDS011;60000;51.030;7.024;2023-04-25T08:55:47;10.13;;;2.72;;
72127;SDS011;60000;51.030;7.024;2023-04-25T08:58:14;7.22;;;2.28;;
72127;SDS011;60000;51.030;7.024;2023-04-25T09:00:40;10.27;;;2.53;;
72127;SDS011;60000;51.030;7.024;2023-04-25T09:03:06;6.93;;;2.10;;
72127;SDS011;60000;51.030;7.024;2023-04-25T09:05:32;8.75;;;1.90;;
72127;SDS011;60000;51.030;7.024;2023-04-25T09:07:58;10.40;;;1.85;;
72127;SDS011;60000;51.030;7.024;2023-04-25T09:10:25;10.75;;;2.55;;
72127;SDS011;60000;51.030;7.024;2023-04-25T09:13:04;5.47;;;1.73;;
72127;SDS011;60000;51.030;7.024;2023-04-25T09:15:46;10.18;;;2.72;;
72127;SDS011;60000;51.030;7.024;2023-04-25T09:18:30;7.22;;;2.28;;
72127;SDS011;60000;51.030;7.024;2023-04-25T09:21:17;10.65;;;1.90;;
72127;SDS011;60000;51.030;7.024;2023-04-25T09:23:46;13.13;;;2.63;;
72127;SDS011;60000;51.030;7.024;2023-04-25T09:26:16;8.38;;;2.70;;
72127;SDS011;60000;51.030;7.024;2023-04-25T09:28:43;8.10;;;2.08;;
72127;SDS011;60000;51.030;7.024;2023-04-25T09:31:12;10.18;;;2.50;;
72127;SDS011;60000;51.030;7.024;2023-04-25T09:33:37;13.23;;;2.17;;
72127;SDS011;60000;51.030;7.024;2023-04-25T09:36:07;6.37;;;1.67;;
72127;SDS011;60000;51.030;7.024;2023-04-25T09:38:39;9.77;;;2.08;;
72127;SDS011;60000;51.030;7.024;2023-04-25T09:41:09;8.50;;;2.08;;
72127;SDS011;60000;51.030;7.024;2023-04-25T09:43:36;11.10;;;2.17;;
72127;SDS011;60000;51.030;7.024;2023-04-25T09:46:02;8.77;;;1.87;;
72127;SDS011;60000;51.030;7.024;2023-04-25T09:48:32;8.73;;;1.90;;
72127;SDS011;60000;51.030;7.024;2023-04-25T09:53:29;6.63;;;1.77;;
72127;SDS011;60000;51.030;7.024;2023-04-25T09:55:55;6.70;;;1.85;;
72127;SDS011;60000;51.030;7.024;2023-04-25T09:58:21;8.37;;;1.83;;
72127;SDS011;60000;51.030;7.024;2023-04-25T10:00:49;6.55;;;1.83;;
72127;SDS011;60000;51.030;7.024;2023-04-25T10:03:15;9.50;;;1.88;;
72127;SDS011;60000;51.030;7.024;2023-04-25T10:05:43;6.88;;;1.88;;
72127;SDS011;60000;51.030;7.024;2023-04-25T10:08:09;8.38;;;1.80;;
72127;SDS011;60000;51.030;7.024;2023-04-25T10:10:37;6.63;;;1.50;;
72127;SDS011;60000;51.030;7.024;2023-04-25T10:13:05;7.57;;;1.70;;
72127;SDS011;60000;51.030;7.024;2023-04-25T10:15:32;8.25;;;1.63;;
72127;SDS011;60000;51.030;7.024;2023-04-25T10:18:00;9.63;;;2.17;;
72127;SDS011;60000;51.030;7.024;2023-04-25T10:20:26;5.18;;;1.80;;
72127;SDS011;60000;51.030;7.024;2023-04-25T10:22:51;6.67;;;1.77;;
72127;SDS011;60000;51.030;7.024;2023-04-25T10:25:21;9.43;;;1.90;;
72127;SDS011;60000;51.030;7.024;2023-04-25T10:27:50;5.07;;;2.03;;
72127;SDS011;60000;51.030;7.024;2023-04-25T10:30:16;7.60;;;1.98;;
72127;SDS011;60000;51.030;7.024;2023-04-25T10:32:43;6.15;;;1.90;;
72127;SDS011;60000;51.030;7.024;2023-04-25T10:35:10;7.45;;;1.83;;
72127;SDS011;60000;51.030;7.024;2023-04-25T10:37:59;7.82;;;1.98;;
72127;SDS011;60000;51.030;7.024;2023-04-25T10:40:29;7.40;;;1.60;;
72127;SDS011;60000;51.030;7.024;2023-04-25T10:42:55;8.15;;;1.42;;
72127;SDS011;60000;51.030;7.024;2023-04-25T10:45:21;7.13;;;1.40;;
72127;SDS011;60000;51.030;7.024;2023-04-25T10:47:47;6.22;;;1.70;;
72127;SDS011;60000;51.030;7.024;2023-04-25T10:50:15;6.47;;;1.90;;
72127;SDS011;60000;51.030;7.024;2023-04-25T10:52:41;6.20;;;1.83;;
72127;SDS011;60000;51.030;7.024;2023-04-25T10:55:07;5.00;;;1.47;;
72127;SDS011;60000;51.030;7.024;2023-04-25T11:02:30;6.60;;;1.50;;
72127;SDS011;60000;51.030;7.024;2023-04-25T11:04:55;7.82;;;1.83;;
72127;SDS011;60000;51.030;7.024;2023-04-25T11:07:34;3.90;;;1.30;;
72127;SDS011;60000;51.030;7.024;2023-04-25T11:10:04;8.25;;;1.83;;
72127;SDS011;60000;51.030;7.024;2023-04-25T11:12:31;4.55;;;1.35;;
72127;SDS011;60000;51.030;7.024;2023-04-25T11:15:03;9.10;;;1.80;;
72127;SDS011;60000;51.030;7.024;2023-04-25T11:17:29;5.90;;;1.75;;
72127;SDS011;60000;51.030;7.024;2023-04-25T11:19:55;5.95;;;1.60;;
72127;SDS011;60000;51.030;7.024;2023-04-25T11:22:21;6.13;;;1.60;;
72127;SDS011;60000;51.030;7.024;2023-04-25T11:24:47;8.15;;;1.65;;
72127;SDS011;60000;51.030;7.024;2023-04-25T11:27:12;8.07;;;1.83;;
72127;SDS011;60000;51.030;7.024;2023-04-25T11:29:38;10.10;;;2.40;;
72127;SDS011;60000;51.030;7.024;2023-04-25T11:32:03;9.38;;;2.00;;
72127;SDS011;60000;51.030;7.024;2023-04-25T11:34:29;6.80;;;1.90;;
72127;SDS011;60000;51.030;7.024;2023-04-25T11:36:55;7.22;;;1.45;;
72127;SDS011;60000;51.030;7.024;2023-04-25T11:39:21;6.22;;;1.45;;
72127;SDS011;60000;51.030;7.024;2023-04-25T11:41:49;5.43;;;1.50;;
72127;SDS011;60000;51.030;7.024;2023-04-25T11:44:15;7.50;;;1.75;;
72127;SDS011;60000;51.030;7.024;2023-04-25T11:46:42;6.22;;;1.50;;
72127;SDS011;60000;51.030;7.024;2023-04-25T11:49:07;5.55;;;1.27;;
72127;SDS011;60000;51.030;7.024;2023-04-25T11:51:39;5.80;;;1.67;;
72127;SDS011;60000;51.030;7.024;2023-04-25T11:54:05;5.32;;;1.30;;
72127;SDS011;60000;51.030;7.024;2023-04-25T11:56:31;5.97;;;1.50;;
72127;SDS011;60000;51.030;7.024;2023-04-25T11:59:00;6.18;;;1.70;;
72127;SDS011;60000;51.030;7.024;2023-04-25T12:01:38;5.70;;;1.70;;
72127;SDS011;60000;51.030;7.024;2023-04-25T12:06:37;8.30;;;1.60;;
72127;SDS011;60000;51.030;7.024;2023-04-25T12:09:09;4.47;;;1.38;;
72127;SDS011;60000;51.030;7.024;2023-04-25T12:11:43;6.25;;;1.65;;
72127;SDS011;60000;51.030;7.024;2023-04-25T12:14:20;9.65;;;1.85;;
72127;SDS011;60000;51.030;7.024;2023-04-25T12:16:47;6.50;;;1.73;;
72127;SDS011;60000;51.030;7.024;2023-04-25T12:19:14;8.77;;;2.00;;
72127;SDS011;60000;51.030;7.024;2023-04-25T12:21:40;4.07;;;1.40;;
72127;SDS011;60000;51.030;7.024;2023-04-25T12:24:16;6.95;;;1.70;;
72127;SDS011;60000;51.030;7.024;2023-04-25T12:26:57;4.72;;;1.52;;
72127;SDS011;60000;51.030;7.024;2023-04-25T12:29:30;6.77;;;1.40;;
72127;SDS011;60000;51.030;7.024;2023-04-25T12:31:57;6.38;;;1.40;;
72127;SDS011;60000;51.030;7.024;2023-04-25T12:34:22;6.03;;;1.50;;
72127;SDS011;60000;51.030;7.024;2023-04-25T12:36:49;6.25;;;1.63;;
72127;SDS011;60000;51.030;7.024;2023-04-25T12:39:15;5.63;;;1.40;;
72127;SDS011;60000;51.030;7.024;2023-04-25T12:41:41;6.03;;;1.60;;
72127;SDS011;60000;51.030;7.024;2023-04-25T12:44:06;4.57;;;1.30;;
72127;SDS011;60000;51.030;7.024;2023-04-25T12:46:35;7.00;;;1.48;;
72127;SDS011;60000;51.030;7.024;2023-04-25T12:49:01;4.50;;;1.57;;
72127;SDS011;60000;51.030;7.024;2023-04-25T12:51:28;5.68;;;1.33;;
72127;SDS011;60000;51.030;7.024;2023-04-25T12:53:53;6.28;;;1.75;;
72127;SDS011;60000;51.030;7.024;2023-04-25T12:56:19;5.15;;;1.65;;
72127;SDS011;60000;51.030;7.024;2023-04-25T12:58:44;5.33;;;1.57;;
72127;SDS011;60000;51.030;7.024;2023-04-25T13:01:10;4.30;;;1.40;;
72127;SDS011;60000;51.030;7.024;2023-04-25T13:03:37;7.38;;;1.80;;
72127;SDS011;60000;51.030;7.024;2023-04-25T13:06:02;4.37;;;1.30;;
72127;SDS011;60000;51.030;7.024;2023-04-25T13:08:28;4.65;;;1.40;;
72127;SDS011;60000;51.030;7.024;2023-04-25T13:10:54;4.15;;;1.40;;
72127;SDS011;60000;51.030;7.024;2023-04-25T13:13:20;5.63;;;1.40;;
72127;SDS011;60000;51.030;7.024;2023-04-25T13:15:45;5.50;;;1.23;;
72127;SDS011;60000;51.030;7.024;2023-04-25T13:18:11;8.57;;;2.00;;
72127;SDS011;60000;51.030;7.024;2023-04-25T13:20:36;5.30;;;1.60;;
72127;SDS011;60000;51.030;7.024;2023-04-25T13:23:01;6.53;;;1.52;;
72127;SDS011;60000;51.030;7.024;2023-04-25T13:25:27;6.28;;;2.08;;
72127;SDS011;60000;51.030;7.024;2023-04-25T13:27:52;8.07;;;2.03;;
72127;SDS011;60000;51.030;7.024;2023-04-25T13:30:17;8.73;;;1.80;;
72127;SDS011;60000;51.030;7.024;2023-04-25T13:32:43;6.87;;;1.97;;
72127;SDS011;60000;51.030;7.024;2023-04-25T13:35:09;7.35;;;1.98;;
72127;SDS011;60000;51.030;7.024;2023-04-25T13:37:36;5.90;;;2.30;;
72127;SDS011;60000;51.030;7.024;2023-04-25T13:40:03;8.68;;;2.53;;
72127;SDS011;60000;51.030;7.024;2023-04-25T13:42:31;9.77;;;2.45;;
72127;SDS011;60000;51.030;7.024;2023-04-25T13:44:57;6.95;;;2.30;;
72127;SDS011;60000;51.030;7.024;2023-04-25T13:47:22;5.05;;;1.95;;
72127;SDS011;60000;51.030;7.024;2023-04-25T13:49:48;7.60;;;2.13;;
72127;SDS011;60000;51.030;7.024;2023-04-25T13:52:16;6.35;;;1.75;;
72127;SDS011;60000;51.030;7.024;2023-04-25T13:54:41;7.30;;;2.03;;
72127;SDS011;60000;51.030;7.024;2023-04-25T13:57:07;9.87;;;2.27;;
72127;SDS011;60000;51.030;7.024;2023-04-25T13:59:35;8.27;;;2.17;;
72127;SDS011;60000;51.030;7.024;2023-04-25T14:02:00;6.97;;;2.20;;
72127;SDS011;60000;51.030;7.024;2023-04-25T14:04:26;5.70;;;2.03;;
72127;SDS011;60000;51.030;7.024;2023-04-25T14:06:52;8.73;;;2.22;;
72127;SDS011;60000;51.030;7.024;2023-04-25T14:09:18;5.53;;;1.57;;
72127;SDS011;60000;51.030;7.024;2023-04-25T14:11:45;7.07;;;1.67;;
72127;SDS011;60000;51.030;7.024;2023-04-25T14:14:10;6.40;;;1.70;;
72127;SDS011;60000;51.030;7.024;2023-04-25T14:16:37;6.13;;;1.60;;
72127;SDS011;60000;51.030;7.024;2023-04-25T14:19:02;5.22;;;1.27;;
72127;SDS011;60000;51.030;7.024;2023-04-25T14:21:28;5.28;;;1.40;;
72127;SDS011;60000;51.030;7.024;2023-04-25T14:23:54;4.90;;;1.40;;
72127;SDS011;60000;51.030;7.024;2023-04-25T14:26:19;8.10;;;1.63;;
72127;SDS011;60000;51.030;7.024;2023-04-25T14:28:45;5.97;;;1.70;;
72127;SDS011;60000;51.030;7.024;2023-04-25T14:31:10;5.60;;;1.70;;
72127;SDS011;60000;51.030;7.024;2023-04-25T14:33:35;4.83;;;1.40;;
72127;SDS011;60000;51.030;7.024;2023-04-25T14:36:02;6.60;;;1.65;;
72127;SDS011;60000;51.030;7.024;2023-04-25T14:38:28;5.70;;;1.27;;
72127;SDS011;60000;51.030;7.024;2023-04-25T14:40:53;5.15;;;1.58;;
72127;SDS011;60000;51.030;7.024;2023-04-25T14:43:19;5.63;;;1.33;;
72127;SDS011;60000;51.030;7.024;2023-04-25T14:45:44;5.27;;;1.10;;
72127;SDS011;60000;51.030;7.024;2023-04-25T14:48:10;3.43;;;1.03;;